sensor_id;sensor_type;location;lat;lon;timestamp;P1;durP1;ratioP1;P2;durP2;ratioP2
9374;SDS011;4727;51.202;6.344;2023-04-24T00:00:28;3.43;;;3.17;;
9374;SDS011;4727;51.202;6.344;2023-04-24T00:02:54;3.87;;;3.43;;
9374;SDS011;4727;51.202;6.344;2023-04-24T00:05:21;4.00;;;3.57;;
9374;SDS011;4727;51.202;6.344;2023-04-24T00:07:47;3.87;;;3.57;;
9374;SDS011;4727;51.202;6.344;2023-04-24T00:10:14;3.50;;;3.30;;
9374;SDS011;4727;51.202;6.344;2023-04-24T00:12:40;5.80;;;4.60;;
9374;SDS011;4727;51.202;6.344;2023-04-24T00:15:06;4.73;;;4.33;;
9374;SDS011;4727;51.202;6.344;2023-04-24T00:17:32;5.47;;;4.97;;
9374;SDS011;4727;51.202;6.344;2023-04-24T00:19:58;5.60;;;5.10;;
9374;SDS011;4727;51.202;6.344;2023-04-24T00:22:25;5.70;;;5.20;;
9374;SDS011;4727;51.202;6.344;2023-04-24T00:24:51;6.40;;;5.80;;
9374;SDS011;4727;51.202;6.344;2023-04-24T00:27:16;6.30;;;5.63;;
9374;SDS011;4727;51.202;6.344;2023-04-24T00:29:42;9.07;;;5.57;;
9374;SDS011;4727;51.202;6.344;2023-04-24T00:32:08;6.17;;;5.57;;
9374;SDS011;4727;51.202;6.344;2023-04-24T00:34:34;6.53;;;5.67;;
9374;SDS011;4727;51.202;6.344;2023-04-24T00:37:00;6.60;;;6.00;;
9374;SDS011;4727;51.202;6.344;2023-04-24T00:39:26;6.40;;;5.90;;
9374;SDS011;4727;51.202;6.344;2023-04-24T00:41:52;6.37;;;5.87;;
9374;SDS011;4727;51.202;6.344;2023-04-24T00:44:18;6.93;;;6.30;;
9374;SDS011;4727;51.202;6.344;2023-04-24T00:46:44;7.23;;;6.53;;
9374;SDS011;4727;51.202;6.344;2023-04-24T00:49:11;6.57;;;5.97;;
9374;SDS011;4727;51.202;6.344;2023-04-24T00:51:37;6.40;;;5.90;;
9374;SDS011;4727;51.202;6.344;2023-04-24T00:54:05;7.33;;;6.73;;
9374;SDS011;4727;51.202;6.344;2023-04-24T00:56:31;7.27;;;6.13;;
9374;SDS011;4727;51.202;6.344;2023-04-24T00:58:57;7.73;;;5.57;;
9374;SDS011;4727;51.202;6.344;2023-04-24T01:01:23;6.20;;;5.70;;
9374;SDS011;4727;51.202;6.344;2023-04-24T01:03:50;6.57;;;5.97;;
9374;SDS011;4727;51.202;6.344;2023-04-24T01:06:18;6.37;;;5.77;;
9374;SDS011;4727;51.202;6.344;2023-04-24T01:08:44;7.57;;;5.23;;
9374;SDS011;4727;51.202;6.344;2023-04-24T01:11:11;7.33;;;5.67;;
9374;SDS011;4727;51.202;6.344;2023-04-24T01:13:37;6.37;;;5.87;;
9374;SDS011;4727;51.202;6.344;2023-04-24T01:16:03;6.60;;;6.00;;
9374;SDS011;4727;51.202;6.344;2023-04-24T01:18:29;6.77;;;5.93;;
9374;SDS011;4727;51.202;6.344;2023-04-24T01:20:59;7.53;;;6.77;;
9374;SDS011;4727;51.202;6.344;2023-04-24T01:23:27;6.40;;;5.73;;
9374;SDS011;4727;51.202;6.344;2023-04-24T01:25:53;7.13;;;6.43;;
9374;SDS011;4727;51.202;6.344;2023-04-24T01:28:20;9.07;;;7.97;;
9374;SDS011;4727;51.202;6.344;2023-04-24T01:30:45;10.20;;;7.93;;
9374;SDS011;4727;51.202;6.344;2023-04-24T01:33:11;10.17;;;8.83;;
9374;SDS011;4727;51.202;6.344;2023-04-24T01:35:38;9.20;;;8.33;;
9374;SDS011;4727;51.202;6.344;2023-04-24T01:38:04;8.63;;;7.83;;
9374;SDS011;4727;51.202;6.344;2023-04-24T01:40:30;8.47;;;7.60;;
9374;SDS011;4727;51.202;6.344;2023-04-24T01:42:57;13.47;;;9.50;;
9374;SDS011;4727;51.202;6.344;2023-04-24T01:45:23;11.40;;;8.27;;
9374;SDS011;4727;51.202;6.344;2023-04-24T01:47:49;12.57;;;9.13;;
9374;SDS011;4727;51.202;6.344;2023-04-24T01:50:15;11.40;;;9.57;;
9374;SDS011;4727;51.202;6.344;2023-04-24T01:52:41;10.13;;;8.00;;
9374;SDS011;4727;51.202;6.344;2023-04-24T01:55:07;12.73;;;9.83;;
9374;SDS011;4727;51.202;6.344;2023-04-24T01:57:34;12.13;;;9.77;;
9374;SDS011;4727;51.202;6.344;2023-04-24T02:00:00;12.67;;;10.60;;
9374;SDS011;4727;51.202;6.344;2023-04-24T02:02:26;13.53;;;10.13;;
9374;SDS011;4727;51.202;6.344;2023-04-24T02:04:55;13.37;;;10.53;;
9374;SDS011;4727;51.202;6.344;2023-04-24T02:07:21;13.67;;;11.40;;
9374;SDS011;4727;51.202;6.344;2023-04-24T02:09:47;14.57;;;11.20;;
9374;SDS011;4727;51.202;6.344;2023-04-24T02:12:16;15.63;;;12.57;;
9374;SDS011;4727;51.202;6.344;2023-04-24T02:14:43;15.63;;;11.50;;
9374;SDS011;4727;51.202;6.344;2023-04-24T02:17:09;15.47;;;12.27;;
9374;SDS011;4727;51.202;6.344;2023-04-24T02:19:38;15.30;;;11.87;;
9374;SDS011;4727;51.202;6.344;2023-04-24T02:22:04;13.37;;;11.87;;
9374;SDS011;4727;51.202;6.344;2023-04-24T02:24:30;15.00;;;12.00;;
9374;SDS011;4727;51.202;6.344;2023-04-24T02:26:56;14.70;;;12.17;;
9374;SDS011;4727;51.202;6.344;2023-04-24T02:29:22;15.10;;;12.43;;
9374;SDS011;4727;51.202;6.344;2023-04-24T02:31:48;17.37;;;11.93;;
9374;SDS011;4727;51.202;6.344;2023-04-24T02:34:14;16.07;;;12.00;;
9374;SDS011;4727;51.202;6.344;2023-04-24T02:36:41;19.30;;;12.67;;
9374;SDS011;4727;51.202;6.344;2023-04-24T02:39:07;20.17;;;12.17;;
9374;SDS011;4727;51.202;6.344;2023-04-24T02:41:33;14.37;;;12.87;;
9374;SDS011;4727;51.202;6.344;2023-04-24T02:43:59;18.73;;;12.90;;
9374;SDS011;4727;51.202;6.344;2023-04-24T02:46:25;18.17;;;12.37;;
9374;SDS011;4727;51.202;6.344;2023-04-24T02:48:51;15.07;;;12.03;;
9374;SDS011;4727;51.202;6.344;2023-04-24T02:51:17;16.70;;;12.63;;
9374;SDS011;4727;51.202;6.344;2023-04-24T02:53:43;15.30;;;13.10;;
9374;SDS011;4727;51.202;6.344;2023-04-24T02:56:09;14.13;;;11.47;;
9374;SDS011;4727;51.202;6.344;2023-04-24T02:58:37;15.50;;;12.03;;
9374;SDS011;4727;51.202;6.344;2023-04-24T03:01:03;12.70;;;11.30;;
9374;SDS011;4727;51.202;6.344;2023-04-24T03:03:29;12.07;;;10.23;;
9374;SDS011;4727;51.202;6.344;2023-04-24T03:05:55;15.27;;;12.40;;
9374;SDS011;4727;51.202;6.344;2023-04-24T03:08:22;15.67;;;11.57;;
9374;SDS011;4727;51.202;6.344;2023-04-24T03:10:48;18.53;;;12.47;;
9374;SDS011;4727;51.202;6.344;2023-04-24T03:13:15;13.53;;;11.97;;
9374;SDS011;4727;51.202;6.344;2023-04-24T03:15:41;13.60;;;11.20;;
9374;SDS011;4727;51.202;6.344;2023-04-24T03:18:07;15.57;;;10.70;;
9374;SDS011;4727;51.202;6.344;2023-04-24T03:20:33;15.13;;;12.67;;
9374;SDS011;4727;51.202;6.344;2023-04-24T03:22:59;13.63;;;9.97;;
9374;SDS011;4727;51.202;6.344;2023-04-24T03:25:25;12.03;;;10.77;;
9374;SDS011;4727;51.202;6.344;2023-04-24T03:27:51;17.07;;;11.57;;
9374;SDS011;4727;51.202;6.344;2023-04-24T03:30:17;14.43;;;10.43;;
9374;SDS011;4727;51.202;6.344;2023-04-24T03:32:43;15.83;;;11.77;;
9374;SDS011;4727;51.202;6.344;2023-04-24T03:35:09;15.20;;;11.73;;
9374;SDS011;4727;51.202;6.344;2023-04-24T03:37:36;16.87;;;11.77;;
9374;SDS011;4727;51.202;6.344;2023-04-24T03:40:02;13.03;;;10.77;;
9374;SDS011;4727;51.202;6.344;2023-04-24T03:42:28;13.33;;;10.97;;
9374;SDS011;4727;51.202;6.344;2023-04-24T03:44:54;12.37;;;10.87;;
9374;SDS011;4727;51.202;6.344;2023-04-24T03:47:20;13.07;;;11.70;;
9374;SDS011;4727;51.202;6.344;2023-04-24T03:49:46;13.47;;;10.83;;
9374;SDS011;4727;51.202;6.344;2023-04-24T03:52:12;13.50;;;10.77;;
9374;SDS011;4727;51.202;6.344;2023-04-24T03:54:38;15.23;;;11.37;;
9374;SDS011;4727;51.202;6.344;2023-04-24T03:57:04;14.27;;;10.83;;
9374;SDS011;4727;51.202;6.344;2023-04-24T03:59:30;13.87;;;11.37;;
9374;SDS011;4727;51.202;6.344;2023-04-24T04:01:56;12.50;;;10.80;;
9374;SDS011;4727;51.202;6.344;2023-04-24T04:04:22;13.30;;;10.43;;
9374;SDS011;4727;51.202;6.344;2023-04-24T04:06:48;12.00;;;10.80;;
9374;SDS011;4727;51.202;6.344;2023-04-24T04:09:14;12.00;;;10.03;;
9374;SDS011;4727;51.202;6.344;2023-04-24T04:11:40;11.53;;;9.90;;
9374;SDS011;4727;51.202;6.344;2023-04-24T04:14:06;11.00;;;9.07;;
9374;SDS011;4727;51.202;6.344;2023-04-24T04:16:32;10.17;;;8.93;;
9374;SDS011;4727;51.202;6.344;2023-04-24T04:18:58;11.93;;;10.07;;
9374;SDS011;4727;51.202;6.344;2023-04-24T04:21:24;11.00;;;10.00;;
9374;SDS011;4727;51.202;6.344;2023-04-24T04:23:52;10.93;;;9.83;;
9374;SDS011;4727;51.202;6.344;2023-04-24T04:26:18;10.80;;;9.63;;
9374;SDS011;4727;51.202;6.344;2023-04-24T04:28:44;12.40;;;11.20;;
9374;SDS011;4727;51.202;6.344;2023-04-24T04:31:10;12.30;;;11.07;;
9374;SDS011;4727;51.202;6.344;2023-04-24T04:33:36;12.93;;;11.37;;
9374;SDS011;4727;51.202;6.344;2023-04-24T04:36:04;12.07;;;10.53;;
9374;SDS011;4727;51.202;6.344;2023-04-24T04:38:30;12.33;;;10.77;;
9374;SDS011;4727;51.202;6.344;2023-04-24T04:40:56;14.93;;;13.00;;
9374;SDS011;4727;51.202;6.344;2023-04-24T04:43:23;13.37;;;11.43;;
9374;SDS011;4727;51.202;6.344;2023-04-24T04:45:49;17.03;;;11.80;;
9374;SDS011;4727;51.202;6.344;2023-04-24T04:48:16;14.47;;;12.27;;
9374;SDS011;4727;51.202;6.344;2023-04-24T04:50:42;12.37;;;11.17;;
9374;SDS011;4727;51.202;6.344;2023-04-24T04:53:08;14.60;;;12.20;;
9374;SDS011;4727;51.202;6.344;2023-04-24T04:55:35;15.07;;;12.07;;
9374;SDS011;4727;51.202;6.344;2023-04-24T04:58:01;14.40;;;12.17;;
9374;SDS011;4727;51.202;6.344;2023-04-24T05:00:27;14.53;;;11.80;;
9374;SDS011;4727;51.202;6.344;2023-04-24T05:02:58;13.27;;;10.50;;
9374;SDS011;4727;51.202;6.344;2023-04-24T05:05:24;14.20;;;12.67;;
9374;SDS011;4727;51.202;6.344;2023-04-24T05:07:50;13.93;;;12.53;;
9374;SDS011;4727;51.202;6.344;2023-04-24T05:10:16;11.87;;;10.17;;
9374;SDS011;4727;51.202;6.344;2023-04-24T05:12:42;12.83;;;10.07;;
9374;SDS011;4727;51.202;6.344;2023-04-24T05:15:08;12.13;;;10.40;;
9374;SDS011;4727;51.202;6.344;2023-04-24T05:17:34;12.17;;;10.73;;
9374;SDS011;4727;51.202;6.344;2023-04-24T05:20:00;13.77;;;11.53;;
9374;SDS011;4727;51.202;6.344;2023-04-24T05:22:27;13.40;;;9.53;;
9374;SDS011;4727;51.202;6.344;2023-04-24T05:24:53;9.97;;;9.03;;
9374;SDS011;4727;51.202;6.344;2023-04-24T05:27:19;15.43;;;10.83;;
9374;SDS011;4727;51.202;6.344;2023-04-24T05:29:45;11.10;;;9.97;;
9374;SDS011;4727;51.202;6.344;2023-04-24T05:32:11;12.47;;;10.23;;
9374;SDS011;4727;51.202;6.344;2023-04-24T05:34:37;10.97;;;9.80;;
9374;SDS011;4727;51.202;6.344;2023-04-24T05:37:03;10.60;;;9.50;;
9374;SDS011;4727;51.202;6.344;2023-04-24T05:39:33;11.17;;;9.40;;
9374;SDS011;4727;51.202;6.344;2023-04-24T05:41:59;11.93;;;10.20;;
9374;SDS011;4727;51.202;6.344;2023-04-24T05:44:27;10.17;;;7.70;;
9374;SDS011;4727;51.202;6.344;2023-04-24T05:46:53;10.00;;;8.97;;
9374;SDS011;4727;51.202;6.344;2023-04-24T05:49:20;9.07;;;8.17;;
9374;SDS011;4727;51.202;6.344;2023-04-24T05:51:46;10.83;;;9.83;;
9374;SDS011;4727;51.202;6.344;2023-04-24T05:54:12;16.30;;;11.07;;
9374;SDS011;4727;51.202;6.344;2023-04-24T05:56:39;10.93;;;9.67;;
9374;SDS011;4727;51.202;6.344;2023-04-24T05:59:05;9.90;;;8.90;;
9374;SDS011;4727;51.202;6.344;2023-04-24T06:01:31;11.17;;;10.07;;
9374;SDS011;4727;51.202;6.344;2023-04-24T06:03:57;9.23;;;8.33;;
9374;SDS011;4727;51.202;6.344;2023-04-24T06:06:23;11.03;;;8.50;;
9374;SDS011;4727;51.202;6.344;2023-04-24T06:08:51;8.00;;;7.20;;
9374;SDS011;4727;51.202;6.344;2023-04-24T06:11:17;10.60;;;9.50;;
9374;SDS011;4727;51.202;6.344;2023-04-24T06:13:42;9.40;;;8.27;;
9374;SDS011;4727;51.202;6.344;2023-04-24T06:16:08;9.53;;;8.53;;
9374;SDS011;4727;51.202;6.344;2023-04-24T06:18:35;10.23;;;9.10;;
9374;SDS011;4727;51.202;6.344;2023-04-24T06:21:01;9.83;;;8.93;;
9374;SDS011;4727;51.202;6.344;2023-04-24T06:23:26;10.50;;;9.40;;
9374;SDS011;4727;51.202;6.344;2023-04-24T06:25:52;13.17;;;10.03;;
9374;SDS011;4727;51.202;6.344;2023-04-24T06:28:18;10.50;;;9.13;;
9374;SDS011;4727;51.202;6.344;2023-04-24T06:30:45;9.80;;;8.80;;
9374;SDS011;4727;51.202;6.344;2023-04-24T06:33:10;10.23;;;9.10;;
9374;SDS011;4727;51.202;6.344;2023-04-24T06:35:37;6.87;;;6.17;;
9374;SDS011;4727;51.202;6.344;2023-04-24T06:38:03;10.37;;;9.23;;
9374;SDS011;4727;51.202;6.344;2023-04-24T06:40:29;8.80;;;7.90;;
9374;SDS011;4727;51.202;6.344;2023-04-24T06:42:55;8.83;;;6.83;;
9374;SDS011;4727;51.202;6.344;2023-04-24T06:45:22;7.87;;;7.07;;
9374;SDS011;4727;51.202;6.344;2023-04-24T06:47:48;5.97;;;5.47;;
9374;SDS011;4727;51.202;6.344;2023-04-24T06:50:15;5.57;;;5.07;;
9374;SDS011;4727;51.202;6.344;2023-04-24T06:52:41;4.93;;;4.47;;
9374;SDS011;4727;51.202;6.344;2023-04-24T06:55:07;4.77;;;4.30;;
9374;SDS011;4727;51.202;6.344;2023-04-24T06:57:33;3.10;;;2.90;;
9374;SDS011;4727;51.202;6.344;2023-04-24T06:59:59;2.87;;;2.67;;
9374;SDS011;4727;51.202;6.344;2023-04-24T07:02:25;3.60;;;3.33;;
9374;SDS011;4727;51.202;6.344;2023-04-24T07:04:51;2.90;;;2.70;;
9374;SDS011;4727;51.202;6.344;2023-04-24T07:07:17;2.43;;;2.20;;
9374;SDS011;4727;51.202;6.344;2023-04-24T07:09:43;3.13;;;2.33;;
9374;SDS011;4727;51.202;6.344;2023-04-24T07:12:11;1.77;;;1.67;;
9374;SDS011;4727;51.202;6.344;2023-04-24T07:14:37;1.60;;;1.50;;
9374;SDS011;4727;51.202;6.344;2023-04-24T07:17:04;1.37;;;1.37;;
9374;SDS011;4727;51.202;6.344;2023-04-24T07:19:30;1.60;;;1.50;;
9374;SDS011;4727;51.202;6.344;2023-04-24T07:21:56;1.67;;;1.60;;
9374;SDS011;4727;51.202;6.344;2023-04-24T07:24:23;2.20;;;2.10;;
9374;SDS011;4727;51.202;6.344;2023-04-24T07:26:50;2.20;;;2.10;;
9374;SDS011;4727;51.202;6.344;2023-04-24T07:29:16;2.50;;;2.30;;
9374;SDS011;4727;51.202;6.344;2023-04-24T07:31:42;1.77;;;1.67;;
9374;SDS011;4727;51.202;6.344;2023-04-24T07:34:08;2.47;;;2.27;;
9374;SDS011;4727;51.202;6.344;2023-04-24T07:36:34;2.20;;;2.00;;
9374;SDS011;4727;51.202;6.344;2023-04-24T07:39:01;2.50;;;2.30;;
9374;SDS011;4727;51.202;6.344;2023-04-24T07:41:27;2.73;;;2.50;;
9374;SDS011;4727;51.202;6.344;2023-04-24T07:43:53;2.77;;;2.57;;
9374;SDS011;4727;51.202;6.344;2023-04-24T07:46:22;3.17;;;2.97;;
9374;SDS011;4727;51.202;6.344;2023-04-24T07:48:48;3.93;;;3.37;;
9374;SDS011;4727;51.202;6.344;2023-04-24T07:51:14;4.20;;;3.90;;
9374;SDS011;4727;51.202;6.344;2023-04-24T07:53:41;4.70;;;4.30;;
9374;SDS011;4727;51.202;6.344;2023-04-24T07:56:07;5.37;;;4.87;;
9374;SDS011;4727;51.202;6.344;2023-04-24T07:58:33;5.97;;;5.47;;
9374;SDS011;4727;51.202;6.344;2023-04-24T08:00:59;7.03;;;6.23;;
9374;SDS011;4727;51.202;6.344;2023-04-24T08:03:25;7.00;;;6.30;;
9374;SDS011;4727;51.202;6.344;2023-04-24T08:05:51;6.57;;;5.97;;
9374;SDS011;4727;51.202;6.344;2023-04-24T08:08:19;6.87;;;6.27;;
9374;SDS011;4727;51.202;6.344;2023-04-24T08:10:46;7.73;;;6.93;;
9374;SDS011;4727;51.202;6.344;2023-04-24T08:13:12;6.80;;;6.10;;
9374;SDS011;4727;51.202;6.344;2023-04-24T08:15:38;7.07;;;6.40;;
9374;SDS011;4727;51.202;6.344;2023-04-24T08:18:04;7.07;;;6.37;;
9374;SDS011;4727;51.202;6.344;2023-04-24T08:20:30;6.20;;;5.60;;
9374;SDS011;4727;51.202;6.344;2023-04-24T08:22:56;5.90;;;5.33;;
9374;SDS011;4727;51.202;6.344;2023-04-24T08:25:22;6.00;;;5.33;;
9374;SDS011;4727;51.202;6.344;2023-04-24T08:27:49;7.23;;;6.20;;
9374;SDS011;4727;51.202;6.344;2023-04-24T08:30:15;6.50;;;5.90;;
9374;SDS011;4727;51.202;6.344;2023-04-24T08:32:41;8.63;;;7.73;;
9374;SDS011;4727;51.202;6.344;2023-04-24T08:35:08;10.37;;;8.90;;
9374;SDS011;4727;51.202;6.344;2023-04-24T08:37:43;11.87;;;8.53;;
9374;SDS011;4727;51.202;6.344;2023-04-24T08:40:13;11.53;;;9.23;;
9374;SDS011;4727;51.202;6.344;2023-04-24T08:42:41;13.07;;;10.60;;
9374;SDS011;4727;51.202;6.344;2023-04-24T08:45:10;12.40;;;9.23;;
9374;SDS011;4727;51.202;6.344;2023-04-24T08:47:40;12.57;;;10.10;;
9374;SDS011;4727;51.202;6.344;2023-04-24T08:50:09;12.93;;;9.07;;
9374;SDS011;4727;51.202;6.344;2023-04-24T08:52:35;10.63;;;9.60;;
9374;SDS011;4727;51.202;6.344;2023-04-24T08:55:01;9.10;;;8.03;;
9374;SDS011;4727;51.202;6.344;2023-04-24T08:57:28;10.27;;;8.13;;
9374;SDS011;4727;51.202;6.344;2023-04-24T08:59:54;11.27;;;8.30;;
9374;SDS011;4727;51.202;6.344;2023-04-24T09:02:21;10.37;;;8.40;;
9374;SDS011;4727;51.202;6.344;2023-04-24T09:04:47;12.33;;;9.70;;
9374;SDS011;4727;51.202;6.344;2023-04-24T09:07:14;14.23;;;9.67;;
9374;SDS011;4727;51.202;6.344;2023-04-24T09:09:42;11.50;;;9.03;;
9374;SDS011;4727;51.202;6.344;2023-04-24T09:12:09;11.30;;;8.97;;
9374;SDS011;4727;51.202;6.344;2023-04-24T09:14:35;14.27;;;10.07;;
9374;SDS011;4727;51.202;6.344;2023-04-24T09:17:04;17.23;;;10.07;;
9374;SDS011;4727;51.202;6.344;2023-04-24T09:19:31;17.20;;;10.77;;
9374;SDS011;4727;51.202;6.344;2023-04-24T09:21:57;13.60;;;10.57;;
9374;SDS011;4727;51.202;6.344;2023-04-24T09:24:23;15.33;;;11.00;;
9374;SDS011;4727;51.202;6.344;2023-04-24T09:26:49;16.40;;;11.20;;
9374;SDS011;4727;51.202;6.344;2023-04-24T09:29:26;15.37;;;11.50;;
9374;SDS011;4727;51.202;6.344;2023-04-24T09:31:52;13.97;;;11.37;;
9374;SDS011;4727;51.202;6.344;2023-04-24T09:34:22;15.10;;;10.03;;
9374;SDS011;4727;51.202;6.344;2023-04-24T09:36:49;14.17;;;10.07;;
9374;SDS011;4727;51.202;6.344;2023-04-24T09:39:15;17.30;;;9.70;;
9374;SDS011;4727;51.202;6.344;2023-04-24T09:41:48;12.03;;;10.00;;
9374;SDS011;4727;51.202;6.344;2023-04-24T09:44:19;13.13;;;9.27;;
9374;SDS011;4727;51.202;6.344;2023-04-24T09:46:49;23.57;;;9.23;;
9374;SDS011;4727;51.202;6.344;2023-04-24T09:49:21;14.67;;;9.27;;
9374;SDS011;4727;51.202;6.344;2023-04-24T09:52:07;14.53;;;8.00;;
9374;SDS011;4727;51.202;6.344;2023-04-24T09:54:36;11.90;;;8.97;;
9374;SDS011;4727;51.202;6.344;2023-04-24T09:57:03;15.20;;;9.37;;
9374;SDS011;4727;51.202;6.344;2023-04-24T09:59:30;15.07;;;8.47;;
9374;SDS011;4727;51.202;6.344;2023-04-24T10:01:56;11.90;;;9.23;;
9374;SDS011;4727;51.202;6.344;2023-04-24T10:04:25;9.83;;;7.67;;
9374;SDS011;4727;51.202;6.344;2023-04-24T10:06:56;13.47;;;7.47;;
9374;SDS011;4727;51.202;6.344;2023-04-24T10:09:25;15.37;;;7.90;;
9374;SDS011;4727;51.202;6.344;2023-04-24T10:11:52;9.90;;;7.37;;
9374;SDS011;4727;51.202;6.344;2023-04-24T10:14:20;13.23;;;6.77;;
9374;SDS011;4727;51.202;6.344;2023-04-24T10:16:52;10.40;;;6.67;;
9374;SDS011;4727;51.202;6.344;2023-04-24T10:19:19;9.43;;;5.57;;
9374;SDS011;4727;51.202;6.344;2023-04-24T10:21:46;10.23;;;6.33;;
9374;SDS011;4727;51.202;6.344;2023-04-24T10:24:16;8.90;;;5.40;;
9374;SDS011;4727;51.202;6.344;2023-04-24T10:26:49;6.70;;;5.60;;
9374;SDS011;4727;51.202;6.344;2023-04-24T10:29:16;10.37;;;5.20;;
9374;SDS011;4727;51.202;6.344;2023-04-24T10:31:43;8.80;;;5.50;;
9374;SDS011;4727;51.202;6.344;2023-04-24T10:34:16;9.27;;;5.50;;
9374;SDS011;4727;51.202;6.344;2023-04-24T10:36:44;10.70;;;5.67;;
9374;SDS011;4727;51.202;6.344;2023-04-24T10:39:19;12.13;;;6.50;;
9374;SDS011;4727;51.202;6.344;2023-04-24T10:41:48;7.77;;;5.17;;
9374;SDS011;4727;51.202;6.344;2023-04-24T10:44:14;11.80;;;5.80;;
9374;SDS011;4727;51.202;6.344;2023-04-24T10:46:47;8.23;;;5.27;;
9374;SDS011;4727;51.202;6.344;2023-04-24T10:49:29;10.33;;;5.57;;
9374;SDS011;4727;51.202;6.344;2023-04-24T10:51:59;9.67;;;4.90;;
9374;SDS011;4727;51.202;6.344;2023-04-24T10:54:33;8.20;;;4.87;;
9374;SDS011;4727;51.202;6.344;2023-04-24T10:59:47;10.37;;;5.80;;
9374;SDS011;4727;51.202;6.344;2023-04-24T11:02:39;8.47;;;4.70;;
9374;SDS011;4727;51.202;6.344;2023-04-24T11:05:08;9.77;;;4.80;;
9374;SDS011;4727;51.202;6.344;2023-04-24T11:10:42;10.57;;;5.27;;
9374;SDS011;4727;51.202;6.344;2023-04-24T11:13:15;12.03;;;5.43;;
9374;SDS011;4727;51.202;6.344;2023-04-24T11:15:42;11.67;;;4.87;;
9374;SDS011;4727;51.202;6.344;2023-04-24T11:18:14;7.53;;;4.73;;
9374;SDS011;4727;51.202;6.344;2023-04-24T11:20:43;9.27;;;4.60;;
9374;SDS011;4727;51.202;6.344;2023-04-24T11:23:11;9.87;;;4.57;;
9374;SDS011;4727;51.202;6.344;2023-04-24T11:25:38;8.23;;;4.80;;
9374;SDS011;4727;51.202;6.344;2023-04-24T11:28:04;7.33;;;3.43;;
9374;SDS011;4727;51.202;6.344;2023-04-24T11:30:31;8.43;;;3.93;;
9374;SDS011;4727;51.202;6.344;2023-04-24T11:33:04;6.03;;;3.40;;
9374;SDS011;4727;51.202;6.344;2023-04-24T11:35:34;7.40;;;4.40;;
9374;SDS011;4727;51.202;6.344;2023-04-24T11:38:04;4.00;;;3.23;;
9374;SDS011;4727;51.202;6.344;2023-04-24T11:40:30;6.10;;;3.33;;
9374;SDS011;4727;51.202;6.344;2023-04-24T11:42:56;8.37;;;4.07;;
9374;SDS011;4727;51.202;6.344;2023-04-24T11:45:26;6.07;;;3.60;;
9374;SDS011;4727;51.202;6.344;2023-04-24T11:47:53;5.77;;;3.30;;
9374;SDS011;4727;51.202;6.344;2023-04-24T11:50:20;6.43;;;3.27;;
9374;SDS011;4727;51.202;6.344;2023-04-24T11:52:48;4.63;;;3.20;;
9374;SDS011;4727;51.202;6.344;2023-04-24T11:57:51;3.23;;;2.60;;
9374;SDS011;4727;51.202;6.344;2023-04-24T12:00:24;3.63;;;2.47;;
9374;SDS011;4727;51.202;6.344;2023-04-24T12:03:03;5.30;;;2.50;;
9374;SDS011;4727;51.202;6.344;2023-04-24T12:05:32;3.90;;;2.50;;
9374;SDS011;4727;51.202;6.344;2023-04-24T12:07:58;5.50;;;2.33;;
9374;SDS011;4727;51.202;6.344;2023-04-24T12:10:25;3.33;;;2.60;;
9374;SDS011;4727;51.202;6.344;2023-04-24T12:12:52;8.13;;;4.00;;
9374;SDS011;4727;51.202;6.344;2023-04-24T12:15:21;4.13;;;3.20;;
9374;SDS011;4727;51.202;6.344;2023-04-24T12:17:49;2.80;;;2.40;;
9374;SDS011;4727;51.202;6.344;2023-04-24T12:20:16;4.20;;;2.40;;
9374;SDS011;4727;51.202;6.344;2023-04-24T12:25:33;5.67;;;2.50;;
9374;SDS011;4727;51.202;6.344;2023-04-24T12:30:35;4.13;;;2.90;;
9374;SDS011;4727;51.202;6.344;2023-04-24T12:33:04;4.10;;;2.17;;
9374;SDS011;4727;51.202;6.344;2023-04-24T12:35:32;5.00;;;2.50;;
9374;SDS011;4727;51.202;6.344;2023-04-24T12:38:11;4.00;;;2.47;;
9374;SDS011;4727;51.202;6.344;2023-04-24T12:40:39;3.90;;;2.23;;
9374;SDS011;4727;51.202;6.344;2023-04-24T12:43:14;3.67;;;2.67;;
9374;SDS011;4727;51.202;6.344;2023-04-24T12:45:41;4.10;;;2.60;;
9374;SDS011;4727;51.202;6.344;2023-04-24T12:48:07;4.40;;;2.33;;
9374;SDS011;4727;51.202;6.344;2023-04-24T12:50:33;4.83;;;2.53;;
9374;SDS011;4727;51.202;6.344;2023-04-24T12:52:59;4.70;;;2.63;;
9374;SDS011;4727;51.202;6.344;2023-04-24T12:55:25;4.93;;;3.03;;
9374;SDS011;4727;51.202;6.344;2023-04-24T12:57:51;5.83;;;2.50;;
9374;SDS011;4727;51.202;6.344;2023-04-24T13:00:20;6.53;;;3.07;;
9374;SDS011;4727;51.202;6.344;2023-04-24T13:02:46;3.00;;;2.53;;
9374;SDS011;4727;51.202;6.344;2023-04-24T13:05:12;3.17;;;2.57;;
9374;SDS011;4727;51.202;6.344;2023-04-24T13:07:38;6.17;;;3.13;;
9374;SDS011;4727;51.202;6.344;2023-04-24T13:10:05;4.50;;;2.80;;
9374;SDS011;4727;51.202;6.344;2023-04-24T13:12:31;4.60;;;2.80;;
9374;SDS011;4727;51.202;6.344;2023-04-24T13:14:57;4.00;;;3.07;;
9374;SDS011;4727;51.202;6.344;2023-04-24T13:17:24;4.43;;;2.70;;
9374;SDS011;4727;51.202;6.344;2023-04-24T13:19:50;5.07;;;3.07;;
9374;SDS011;4727;51.202;6.344;2023-04-24T13:22:16;6.10;;;3.97;;
9374;SDS011;4727;51.202;6.344;2023-04-24T13:24:44;13.53;;;8.00;;
9374;SDS011;4727;51.202;6.344;2023-04-24T13:27:10;15.87;;;8.33;;
9374;SDS011;4727;51.202;6.344;2023-04-24T13:29:36;5.33;;;3.43;;
9374;SDS011;4727;51.202;6.344;2023-04-24T13:32:02;8.73;;;4.67;;
9374;SDS011;4727;51.202;6.344;2023-04-24T13:34:28;7.43;;;4.30;;
9374;SDS011;4727;51.202;6.344;2023-04-24T13:36:55;3.13;;;2.43;;
9374;SDS011;4727;51.202;6.344;2023-04-24T13:39:22;4.43;;;3.10;;
9374;SDS011;4727;51.202;6.344;2023-04-24T13:41:48;5.70;;;3.70;;
9374;SDS011;4727;51.202;6.344;2023-04-24T13:44:17;5.47;;;3.40;;
9374;SDS011;4727;51.202;6.344;2023-04-24T13:46:44;2.93;;;2.73;;
9374;SDS011;4727;51.202;6.344;2023-04-24T13:49:11;3.93;;;3.27;;
9374;SDS011;4727;51.202;6.344;2023-04-24T13:51:37;4.20;;;2.80;;
9374;SDS011;4727;51.202;6.344;2023-04-24T13:54:04;3.13;;;2.80;;
9374;SDS011;4727;51.202;6.344;2023-04-24T13:56:30;3.30;;;2.73;;
9374;SDS011;4727;51.202;6.344;2023-04-24T13:58:56;3.53;;;2.37;;
9374;SDS011;4727;51.202;6.344;2023-04-24T14:01:22;4.27;;;2.37;;
9374;SDS011;4727;51.202;6.344;2023-04-24T14:03:50;5.63;;;2.70;;
9374;SDS011;4727;51.202;6.344;2023-04-24T14:06:16;3.53;;;2.57;;
9374;SDS011;4727;51.202;6.344;2023-04-24T14:08:42;3.20;;;2.30;;
9374;SDS011;4727;51.202;6.344;2023-04-24T14:11:08;5.10;;;2.80;;
9374;SDS011;4727;51.202;6.344;2023-04-24T14:13:35;6.33;;;2.77;;
9374;SDS011;4727;51.202;6.344;2023-04-24T14:16:01;2.73;;;2.53;;
9374;SDS011;4727;51.202;6.344;2023-04-24T14:18:27;3.80;;;2.80;;
9374;SDS011;4727;51.202;6.344;2023-04-24T14:20:53;2.97;;;2.70;;
9374;SDS011;4727;51.202;6.344;2023-04-24T14:23:19;4.57;;;2.53;;
9374;SDS011;4727;51.202;6.344;2023-04-24T14:25:45;3.07;;;2.77;;
9374;SDS011;4727;51.202;6.344;2023-04-24T14:28:15;2.90;;;2.70;;
9374;SDS011;4727;51.202;6.344;2023-04-24T14:30:41;4.83;;;2.60;;
9374;SDS011;4727;51.202;6.344;2023-04-24T14:33:07;2.83;;;2.63;;
9374;SDS011;4727;51.202;6.344;2023-04-24T14:35:33;2.57;;;2.27;;
9374;SDS011;4727;51.202;6.344;2023-04-24T14:38:00;3.90;;;2.70;;
9374;SDS011;4727;51.202;6.344;2023-04-24T14:40:26;4.70;;;2.60;;
9374;SDS011;4727;51.202;6.344;2023-04-24T14:42:52;3.73;;;2.93;;
9374;SDS011;4727;51.202;6.344;2023-04-24T14:45:18;3.93;;;2.60;;
9374;SDS011;4727;51.202;6.344;2023-04-24T14:47:44;3.93;;;2.70;;
9374;SDS011;4727;51.202;6.344;2023-04-24T14:50:10;4.40;;;3.17;;
9374;SDS011;4727;51.202;6.344;2023-04-24T14:52:37;3.20;;;2.77;;
9374;SDS011;4727;51.202;6.344;2023-04-24T14:55:03;3.37;;;2.97;;
9374;SDS011;4727;51.202;6.344;2023-04-24T14:57:30;4.70;;;3.20;;
9374;SDS011;4727;51.202;6.344;2023-04-24T14:59:56;4.97;;;3.13;;
9374;SDS011;4727;51.202;6.344;2023-04-24T15:02:22;5.47;;;3.67;;
9374;SDS011;4727;51.202;6.344;2023-04-24T15:04:47;4.97;;;2.87;;
9374;SDS011;4727;51.202;6.344;2023-04-24T15:07:13;4.87;;;3.30;;
9374;SDS011;4727;51.202;6.344;2023-04-24T15:09:40;4.03;;;3.60;;
9374;SDS011;4727;51.202;6.344;2023-04-24T15:12:06;4.67;;;4.10;;
9374;SDS011;4727;51.202;6.344;2023-04-24T15:14:31;4.23;;;2.67;;
9374;SDS011;4727;51.202;6.344;2023-04-24T15:16:57;3.27;;;2.87;;